sensor_id;sensor_type;location;lat;lon;timestamp;P1;durP1;ratioP1;P2;durP2;ratioP2
19782;SDS011;10051;40.294;-3.754;2023-03-29T00:00:25;7.78;;;3.00;;
19782;SDS011;10051;40.294;-3.754;2023-03-29T00:02:51;10.13;;;2.95;;
19782;SDS011;10051;40.294;-3.754;2023-03-29T00:05:20;7.97;;;2.92;;
19782;SDS011;10051;40.294;-3.754;2023-03-29T00:07:49;8.25;;;2.83;;
19782;SDS011;10051;40.294;-3.754;2023-03-29T00:10:21;6.55;;;3.22;;
19782;SDS011;10051;40.294;-3.754;2023-03-29T00:12:48;8.57;;;3.28;;
19782;SDS011;10051;40.294;-3.754;2023-03-29T00:15:16;8.75;;;3.60;;
19782;SDS011;10051;40.294;-3.754;2023-03-29T00:17:41;13.00;;;3.42;;
19782;SDS011;10051;40.294;-3.754;2023-03-29T00:20:07;8.98;;;3.80;;
19782;SDS011;10051;40.294;-3.754;2023-03-29T00:22:37;14.55;;;4.20;;
19782;SDS011;10051;40.294;-3.754;2023-03-29T00:25:06;12.05;;;4.13;;
19782;SDS011;10051;40.294;-3.754;2023-03-29T00:27:36;12.98;;;4.18;;
19782;SDS011;10051;40.294;-3.754;2023-03-29T00:30:03;17.02;;;4.40;;
19782;SDS011;10051;40.294;-3.754;2023-03-29T00:32:30;16.05;;;4.68;;
19782;SDS011;10051;40.294;-3.754;2023-03-29T00:34:56;20.38;;;4.47;;
19782;SDS011;10051;40.294;-3.754;2023-03-29T00:37:22;12.73;;;3.90;;
19782;SDS011;10051;40.294;-3.754;2023-03-29T00:39:54;13.45;;;4.00;;
19782;SDS011;10051;40.294;-3.754;2023-03-29T00:42:20;15.93;;;4.07;;
19782;SDS011;10051;40.294;-3.754;2023-03-29T00:47:36;16.77;;;4.38;;
19782;SDS011;10051;40.294;-3.754;2023-03-29T00:50:23;17.83;;;4.78;;
19782;SDS011;10051;40.294;-3.754;2023-03-29T00:53:02;19.15;;;6.10;;
19782;SDS011;10051;40.294;-3.754;2023-03-29T00:55:40;19.20;;;6.28;;
19782;SDS011;10051;40.294;-3.754;2023-03-29T00:58:11;19.13;;;6.13;;
19782;SDS011;10051;40.294;-3.754;2023-03-29T01:00:49;15.80;;;5.75;;
19782;SDS011;10051;40.294;-3.754;2023-03-29T01:03:21;16.80;;;5.65;;
19782;SDS011;10051;40.294;-3.754;2023-03-29T01:06:04;21.55;;;5.90;;
19782;SDS011;10051;40.294;-3.754;2023-03-29T01:08:38;19.58;;;5.97;;
19782;SDS011;10051;40.294;-3.754;2023-03-29T01:11:21;18.58;;;5.82;;
19782;SDS011;10051;40.294;-3.754;2023-03-29T01:13:55;20.40;;;5.65;;
19782;SDS011;10051;40.294;-3.754;2023-03-29T01:16:23;20.30;;;6.10;;
19782;SDS011;10051;40.294;-3.754;2023-03-29T01:18:52;17.88;;;5.95;;
19782;SDS011;10051;40.294;-3.754;2023-03-29T01:21:19;17.63;;;6.35;;
19782;SDS011;10051;40.294;-3.754;2023-03-29T01:29:10;18.65;;;5.57;;
19782;SDS011;10051;40.294;-3.754;2023-03-29T01:31:46;16.38;;;5.78;;
19782;SDS011;10051;40.294;-3.754;2023-03-29T01:36:56;20.90;;;5.75;;
19782;SDS011;10051;40.294;-3.754;2023-03-29T01:39:35;20.05;;;5.32;;
19782;SDS011;10051;40.294;-3.754;2023-03-29T01:42:13;15.68;;;5.40;;
19782;SDS011;10051;40.294;-3.754;2023-03-29T01:52:44;16.65;;;5.00;;
19782;SDS011;10051;40.294;-3.754;2023-03-29T01:55:21;16.50;;;5.28;;
19782;SDS011;10051;40.294;-3.754;2023-03-29T01:57:51;16.15;;;5.20;;
19782;SDS011;10051;40.294;-3.754;2023-03-29T02:00:21;17.38;;;6.00;;
19782;SDS011;10051;40.294;-3.754;2023-03-29T02:02:50;17.95;;;5.25;;
19782;SDS011;10051;40.294;-3.754;2023-03-29T02:05:18;17.63;;;5.47;;
19782;SDS011;10051;40.294;-3.754;2023-03-29T02:07:48;19.58;;;5.07;;
19782;SDS011;10051;40.294;-3.754;2023-03-29T02:10:15;16.92;;;4.80;;
19782;SDS011;10051;40.294;-3.754;2023-03-29T02:12:43;17.30;;;4.95;;
19782;SDS011;10051;40.294;-3.754;2023-03-29T02:15:12;20.17;;;4.95;;
19782;SDS011;10051;40.294;-3.754;2023-03-29T02:17:40;14.88;;;4.85;;
19782;SDS011;10051;40.294;-3.754;2023-03-29T02:20:09;14.13;;;4.90;;
19782;SDS011;10051;40.294;-3.754;2023-03-29T02:22:40;20.20;;;5.35;;
19782;SDS011;10051;40.294;-3.754;2023-03-29T02:25:28;18.80;;;5.50;;
19782;SDS011;10051;40.294;-3.754;2023-03-29T02:27:54;16.65;;;5.50;;
19782;SDS011;10051;40.294;-3.754;2023-03-29T02:30:21;18.30;;;5.65;;
19782;SDS011;10051;40.294;-3.754;2023-03-29T02:35:31;16.48;;;5.75;;
19782;SDS011;10051;40.294;-3.754;2023-03-29T02:38:01;18.92;;;4.90;;
19782;SDS011;10051;40.294;-3.754;2023-03-29T02:40:29;10.93;;;4.05;;
19782;SDS011;10051;40.294;-3.754;2023-03-29T02:42:57;14.80;;;4.07;;
19782;SDS011;10051;40.294;-3.754;2023-03-29T02:45:24;17.17;;;4.53;;
19782;SDS011;10051;40.294;-3.754;2023-03-29T02:47:53;17.80;;;3.80;;
19782;SDS011;10051;40.294;-3.754;2023-03-29T02:50:22;15.88;;;3.78;;
19782;SDS011;10051;40.294;-3.754;2023-03-29T02:52:59;14.15;;;4.00;;
19782;SDS011;10051;40.294;-3.754;2023-03-29T02:55:30;16.35;;;4.40;;
19782;SDS011;10051;40.294;-3.754;2023-03-29T02:57:59;16.98;;;4.90;;
19782;SDS011;10051;40.294;-3.754;2023-03-29T03:00:31;16.45;;;4.10;;
19782;SDS011;10051;40.294;-3.754;2023-03-29T03:02:58;15.32;;;4.50;;
19782;SDS011;10051;40.294;-3.754;2023-03-29T03:05:24;17.17;;;4.65;;
19782;SDS011;10051;40.294;-3.754;2023-03-29T03:07:49;14.45;;;4.28;;
19782;SDS011;10051;40.294;-3.754;2023-03-29T03:10:18;12.85;;;4.05;;
19782;SDS011;10051;40.294;-3.754;2023-03-29T03:12:44;18.27;;;4.57;;
19782;SDS011;10051;40.294;-3.754;2023-03-29T03:15:10;17.42;;;4.45;;
19782;SDS011;10051;40.294;-3.754;2023-03-29T03:17:35;15.32;;;3.72;;
19782;SDS011;10051;40.294;-3.754;2023-03-29T03:20:06;15.13;;;3.75;;
19782;SDS011;10051;40.294;-3.754;2023-03-29T03:22:38;15.80;;;4.05;;
19782;SDS011;10051;40.294;-3.754;2023-03-29T03:25:08;10.02;;;3.38;;
19782;SDS011;10051;40.294;-3.754;2023-03-29T03:27:37;15.95;;;3.50;;
19782;SDS011;10051;40.294;-3.754;2023-03-29T03:30:04;11.07;;;3.40;;
19782;SDS011;10051;40.294;-3.754;2023-03-29T03:32:32;11.65;;;3.40;;
19782;SDS011;10051;40.294;-3.754;2023-03-29T03:34:59;14.15;;;3.40;;
19782;SDS011;10051;40.294;-3.754;2023-03-29T03:37:25;9.07;;;3.20;;
19782;SDS011;10051;40.294;-3.754;2023-03-29T03:39:51;11.27;;;4.22;;
19782;SDS011;10051;40.294;-3.754;2023-03-29T03:42:18;21.17;;;4.20;;
19782;SDS011;10051;40.294;-3.754;2023-03-29T03:44:43;12.95;;;3.33;;
19782;SDS011;10051;40.294;-3.754;2023-03-29T03:47:10;10.45;;;3.30;;
19782;SDS011;10051;40.294;-3.754;2023-03-29T03:49:40;11.13;;;3.13;;
19782;SDS011;10051;40.294;-3.754;2023-03-29T03:52:06;10.82;;;3.00;;
19782;SDS011;10051;40.294;-3.754;2023-03-29T03:54:33;11.98;;;3.30;;
19782;SDS011;10051;40.294;-3.754;2023-03-29T03:56:59;19.35;;;3.40;;
19782;SDS011;10051;40.294;-3.754;2023-03-29T03:59:25;10.90;;;3.50;;
19782;SDS011;10051;40.294;-3.754;2023-03-29T04:01:50;12.40;;;3.03;;
19782;SDS011;10051;40.294;-3.754;2023-03-29T04:04:17;8.80;;;3.28;;
19782;SDS011;10051;40.294;-3.754;2023-03-29T04:06:43;12.63;;;2.90;;
19782;SDS011;10051;40.294;-3.754;2023-03-29T04:09:09;9.70;;;3.25;;
19782;SDS011;10051;40.294;-3.754;2023-03-29T04:11:35;11.63;;;3.35;;
19782;SDS011;10051;40.294;-3.754;2023-03-29T04:14:01;8.68;;;3.10;;
19782;SDS011;10051;40.294;-3.754;2023-03-29T04:16:27;8.48;;;3.15;;
19782;SDS011;10051;40.294;-3.754;2023-03-29T04:18:53;13.38;;;3.63;;
19782;SDS011;10051;40.294;-3.754;2023-03-29T04:21:19;13.02;;;3.65;;
19782;SDS011;10051;40.294;-3.754;2023-03-29T04:23:45;10.82;;;3.28;;
19782;SDS011;10051;40.294;-3.754;2023-03-29T04:26:12;14.57;;;3.42;;
19782;SDS011;10051;40.294;-3.754;2023-03-29T04:28:39;10.52;;;3.45;;
19782;SDS011;10051;40.294;-3.754;2023-03-29T04:31:09;13.57;;;3.33;;
19782;SDS011;10051;40.294;-3.754;2023-03-29T04:33:36;11.68;;;3.65;;
19782;SDS011;10051;40.294;-3.754;2023-03-29T04:36:02;13.10;;;3.83;;
19782;SDS011;10051;40.294;-3.754;2023-03-29T04:38:28;15.95;;;3.75;;
19782;SDS011;10051;40.294;-3.754;2023-03-29T04:40:54;14.88;;;3.95;;
19782;SDS011;10051;40.294;-3.754;2023-03-29T04:43:20;14.02;;;3.72;;
19782;SDS011;10051;40.294;-3.754;2023-03-29T04:45:47;13.93;;;3.65;;
19782;SDS011;10051;40.294;-3.754;2023-03-29T04:48:13;14.60;;;3.90;;
19782;SDS011;10051;40.294;-3.754;2023-03-29T04:50:39;11.85;;;3.83;;
19782;SDS011;10051;40.294;-3.754;2023-03-29T04:53:05;10.23;;;3.83;;
19782;SDS011;10051;40.294;-3.754;2023-03-29T04:55:31;15.75;;;3.85;;
19782;SDS011;10051;40.294;-3.754;2023-03-29T04:57:57;13.70;;;3.90;;
19782;SDS011;10051;40.294;-3.754;2023-03-29T05:00:22;13.05;;;4.07;;
19782;SDS011;10051;40.294;-3.754;2023-03-29T05:02:51;17.95;;;4.07;;
19782;SDS011;10051;40.294;-3.754;2023-03-29T05:05:17;10.13;;;3.72;;
19782;SDS011;10051;40.294;-3.754;2023-03-29T05:07:43;19.27;;;3.97;;
19782;SDS011;10051;40.294;-3.754;2023-03-29T05:10:10;13.57;;;4.40;;
19782;SDS011;10051;40.294;-3.754;2023-03-29T05:12:35;11.13;;;4.07;;
19782;SDS011;10051;40.294;-3.754;2023-03-29T05:15:02;11.35;;;3.78;;
19782;SDS011;10051;40.294;-3.754;2023-03-29T05:17:28;12.98;;;4.20;;
19782;SDS011;10051;40.294;-3.754;2023-03-29T05:19:55;14.18;;;4.03;;
19782;SDS011;10051;40.294;-3.754;2023-03-29T05:22:21;14.52;;;4.10;;
19782;SDS011;10051;40.294;-3.754;2023-03-29T05:24:48;9.80;;;4.10;;
19782;SDS011;10051;40.294;-3.754;2023-03-29T05:27:15;18.63;;;4.80;;
19782;SDS011;10051;40.294;-3.754;2023-03-29T05:29:41;24.70;;;5.05;;
19782;SDS011;10051;40.294;-3.754;2023-03-29T05:32:09;15.20;;;4.55;;
19782;SDS011;10051;40.294;-3.754;2023-03-29T05:34:35;19.13;;;4.32;;
19782;SDS011;10051;40.294;-3.754;2023-03-29T05:37:01;17.83;;;4.63;;
19782;SDS011;10051;40.294;-3.754;2023-03-29T05:39:26;15.27;;;4.25;;
19782;SDS011;10051;40.294;-3.754;2023-03-29T05:41:52;15.77;;;4.72;;
19782;SDS011;10051;40.294;-3.754;2023-03-29T05:44:19;11.52;;;3.78;;
19782;SDS011;10051;40.294;-3.754;2023-03-29T05:46:45;10.80;;;4.15;;
19782;SDS011;10051;40.294;-3.754;2023-03-29T05:49:11;16.45;;;4.57;;
19782;SDS011;10051;40.294;-3.754;2023-03-29T05:51:36;17.00;;;4.82;;
19782;SDS011;10051;40.294;-3.754;2023-03-29T05:54:02;22.30;;;4.60;;
19782;SDS011;10051;40.294;-3.754;2023-03-29T05:56:28;20.15;;;4.50;;
19782;SDS011;10051;40.294;-3.754;2023-03-29T05:58:53;22.05;;;4.60;;
19782;SDS011;10051;40.294;-3.754;2023-03-29T06:01:22;15.07;;;4.70;;
19782;SDS011;10051;40.294;-3.754;2023-03-29T06:03:50;20.83;;;4.93;;
19782;SDS011;10051;40.294;-3.754;2023-03-29T06:06:16;18.05;;;4.65;;
19782;SDS011;10051;40.294;-3.754;2023-03-29T06:08:42;15.10;;;4.25;;
19782;SDS011;10051;40.294;-3.754;2023-03-29T06:11:09;15.70;;;4.50;;
19782;SDS011;10051;40.294;-3.754;2023-03-29T06:13:36;25.92;;;4.57;;
19782;SDS011;10051;40.294;-3.754;2023-03-29T06:16:05;20.02;;;3.90;;
19782;SDS011;10051;40.294;-3.754;2023-03-29T06:18:31;15.80;;;3.80;;
19782;SDS011;10051;40.294;-3.754;2023-03-29T06:21:00;12.55;;;3.83;;
19782;SDS011;10051;40.294;-3.754;2023-03-29T06:23:26;16.38;;;4.20;;
19782;SDS011;10051;40.294;-3.754;2023-03-29T06:25:53;11.55;;;3.50;;
19782;SDS011;10051;40.294;-3.754;2023-03-29T06:28:19;10.52;;;3.97;;
19782;SDS011;10051;40.294;-3.754;2023-03-29T06:30:46;10.15;;;3.35;;
19782;SDS011;10051;40.294;-3.754;2023-03-29T06:33:12;13.50;;;3.42;;
19782;SDS011;10051;40.294;-3.754;2023-03-29T06:35:40;12.07;;;3.45;;
19782;SDS011;10051;40.294;-3.754;2023-03-29T06:38:10;10.98;;;3.40;;
19782;SDS011;10051;40.294;-3.754;2023-03-29T06:40:36;12.95;;;3.75;;
19782;SDS011;10051;40.294;-3.754;2023-03-29T06:43:03;10.43;;;3.70;;
19782;SDS011;10051;40.294;-3.754;2023-03-29T06:45:30;15.80;;;4.20;;
19782;SDS011;10051;40.294;-3.754;2023-03-29T06:47:57;15.18;;;3.53;;
19782;SDS011;10051;40.294;-3.754;2023-03-29T06:50:23;11.38;;;4.15;;
19782;SDS011;10051;40.294;-3.754;2023-03-29T06:52:50;22.50;;;4.72;;
19782;SDS011;10051;40.294;-3.754;2023-03-29T06:55:16;32.63;;;5.47;;
19782;SDS011;10051;40.294;-3.754;2023-03-29T06:57:43;20.40;;;4.78;;
19782;SDS011;10051;40.294;-3.754;2023-03-29T07:00:09;24.95;;;5.07;;
19782;SDS011;10051;40.294;-3.754;2023-03-29T07:02:40;19.88;;;5.47;;
19782;SDS011;10051;40.294;-3.754;2023-03-29T07:05:06;29.23;;;5.18;;
19782;SDS011;10051;40.294;-3.754;2023-03-29T07:07:36;19.30;;;5.30;;
19782;SDS011;10051;40.294;-3.754;2023-03-29T07:10:24;34.17;;;5.43;;
19782;SDS011;10051;40.294;-3.754;2023-03-29T07:12:52;23.02;;;5.38;;
19782;SDS011;10051;40.294;-3.754;2023-03-29T07:15:19;25.45;;;5.50;;
19782;SDS011;10051;40.294;-3.754;2023-03-29T07:17:46;17.48;;;5.18;;
19782;SDS011;10051;40.294;-3.754;2023-03-29T07:20:12;19.42;;;5.28;;
19782;SDS011;10051;40.294;-3.754;2023-03-29T07:22:40;19.45;;;5.20;;
19782;SDS011;10051;40.294;-3.754;2023-03-29T07:25:06;23.40;;;5.22;;
19782;SDS011;10051;40.294;-3.754;2023-03-29T07:27:36;26.92;;;5.10;;
19782;SDS011;10051;40.294;-3.754;2023-03-29T07:30:04;22.23;;;5.38;;
19782;SDS011;10051;40.294;-3.754;2023-03-29T07:32:38;17.20;;;4.53;;
19782;SDS011;10051;40.294;-3.754;2023-03-29T07:35:06;16.23;;;4.63;;
19782;SDS011;10051;40.294;-3.754;2023-03-29T07:37:33;17.08;;;4.30;;
19782;SDS011;10051;40.294;-3.754;2023-03-29T07:40:02;12.27;;;4.55;;
19782;SDS011;10051;40.294;-3.754;2023-03-29T07:42:36;18.95;;;4.15;;
19782;SDS011;10051;40.294;-3.754;2023-03-29T07:45:06;15.57;;;4.30;;
19782;SDS011;10051;40.294;-3.754;2023-03-29T07:47:35;19.88;;;4.72;;
19782;SDS011;10051;40.294;-3.754;2023-03-29T07:50:01;10.60;;;4.40;;
19782;SDS011;10051;40.294;-3.754;2023-03-29T07:52:28;16.17;;;4.90;;
19782;SDS011;10051;40.294;-3.754;2023-03-29T07:54:54;12.13;;;4.63;;
19782;SDS011;10051;40.294;-3.754;2023-03-29T07:57:23;17.95;;;4.65;;
19782;SDS011;10051;40.294;-3.754;2023-03-29T07:59:51;17.65;;;4.45;;
19782;SDS011;10051;40.294;-3.754;2023-03-29T08:02:17;23.42;;;5.43;;
19782;SDS011;10051;40.294;-3.754;2023-03-29T08:04:43;22.55;;;4.88;;
19782;SDS011;10051;40.294;-3.754;2023-03-29T08:07:10;24.52;;;5.20;;
19782;SDS011;10051;40.294;-3.754;2023-03-29T08:09:36;21.75;;;5.07;;
19782;SDS011;10051;40.294;-3.754;2023-03-29T08:12:03;19.23;;;5.38;;
19782;SDS011;10051;40.294;-3.754;2023-03-29T08:14:30;17.50;;;5.28;;
19782;SDS011;10051;40.294;-3.754;2023-03-29T08:16:56;12.95;;;5.20;;
19782;SDS011;10051;40.294;-3.754;2023-03-29T08:19:21;26.88;;;5.68;;
19782;SDS011;10051;40.294;-3.754;2023-03-29T08:21:47;18.20;;;4.88;;
19782;SDS011;10051;40.294;-3.754;2023-03-29T08:24:13;16.15;;;4.55;;
19782;SDS011;10051;40.294;-3.754;2023-03-29T08:26:38;16.50;;;4.18;;
19782;SDS011;10051;40.294;-3.754;2023-03-29T08:29:04;18.02;;;4.07;;
19782;SDS011;10051;40.294;-3.754;2023-03-29T08:31:32;14.05;;;4.00;;
19782;SDS011;10051;40.294;-3.754;2023-03-29T08:33:58;15.05;;;3.90;;
19782;SDS011;10051;40.294;-3.754;2023-03-29T08:36:23;11.15;;;3.83;;
19782;SDS011;10051;40.294;-3.754;2023-03-29T08:38:49;18.90;;;4.03;;
19782;SDS011;10051;40.294;-3.754;2023-03-29T08:49:20;15.05;;;2.95;;
19782;SDS011;10051;40.294;-3.754;2023-03-29T08:51:57;9.68;;;2.35;;
19782;SDS011;10051;40.294;-3.754;2023-03-29T08:54:33;9.75;;;2.60;;
19782;SDS011;10051;40.294;-3.754;2023-03-29T08:57:11;10.90;;;3.03;;
19782;SDS011;10051;40.294;-3.754;2023-03-29T08:59:45;10.52;;;2.25;;
19782;SDS011;10051;40.294;-3.754;2023-03-29T09:02:16;9.05;;;1.92;;
19782;SDS011;10051;40.294;-3.754;2023-03-29T09:04:49;11.10;;;2.38;;
19782;SDS011;10051;40.294;-3.754;2023-03-29T09:07:17;13.05;;;2.38;;
19782;SDS011;10051;40.294;-3.754;2023-03-29T09:09:42;12.32;;;2.33;;
19782;SDS011;10051;40.294;-3.754;2023-03-29T09:26:47;11.10;;;2.10;;
19782;SDS011;10051;40.294;-3.754;2023-03-29T09:29:28;15.73;;;2.17;;
19782;SDS011;10051;40.294;-3.754;2023-03-29T09:31:41;11.45;;;2.45;;
19782;SDS011;10051;40.294;-3.754;2023-03-29T09:34:30;15.00;;;2.38;;
19782;SDS011;10051;40.294;-3.754;2023-03-29T09:37:07;10.85;;;2.00;;
19782;SDS011;10051;40.294;-3.754;2023-03-29T09:39:38;18.63;;;2.50;;
19782;SDS011;10051;40.294;-3.754;2023-03-29T09:42:05;19.13;;;2.35;;
19782;SDS011;10051;40.294;-3.754;2023-03-29T09:44:37;12.52;;;2.53;;
19782;SDS011;10051;40.294;-3.754;2023-03-29T09:47:13;9.85;;;2.17;;
19782;SDS011;10051;40.294;-3.754;2023-03-29T09:49:56;11.75;;;2.20;;
19782;SDS011;10051;40.294;-3.754;2023-03-29T09:52:29;13.02;;;2.20;;
19782;SDS011;10051;40.294;-3.754;2023-03-29T09:54:55;13.38;;;2.38;;
19782;SDS011;10051;40.294;-3.754;2023-03-29T09:57:22;9.10;;;2.00;;
19782;SDS011;10051;40.294;-3.754;2023-03-29T09:59:48;11.52;;;2.17;;
19782;SDS011;10051;40.294;-3.754;2023-03-29T10:02:16;16.85;;;2.58;;
19782;SDS011;10051;40.294;-3.754;2023-03-29T10:04:44;18.42;;;2.70;;
19782;SDS011;10051;40.294;-3.754;2023-03-29T10:07:16;16.70;;;2.22;;
19782;SDS011;10051;40.294;-3.754;2023-03-29T10:09:44;15.35;;;2.08;;
19782;SDS011;10051;40.294;-3.754;2023-03-29T10:12:11;13.70;;;2.40;;
19782;SDS011;10051;40.294;-3.754;2023-03-29T10:14:47;12.10;;;2.60;;
19782;SDS011;10051;40.294;-3.754;2023-03-29T10:17:25;10.10;;;2.13;;
19782;SDS011;10051;40.294;-3.754;2023-03-29T10:20:00;8.65;;;2.10;;
19782;SDS011;10051;40.294;-3.754;2023-03-29T10:22:31;13.75;;;2.22;;
19782;SDS011;10051;40.294;-3.754;2023-03-29T10:25:02;10.13;;;2.50;;
19782;SDS011;10051;40.294;-3.754;2023-03-29T10:27:32;11.45;;;2.35;;
19782;SDS011;10051;40.294;-3.754;2023-03-29T10:29:59;17.08;;;2.40;;
19782;SDS011;10051;40.294;-3.754;2023-03-29T10:35:07;15.70;;;2.17;;
19782;SDS011;10051;40.294;-3.754;2023-03-29T10:37:40;8.57;;;2.17;;
19782;SDS011;10051;40.294;-3.754;2023-03-29T10:40:29;16.40;;;2.20;;
19782;SDS011;10051;40.294;-3.754;2023-03-29T10:42:58;10.77;;;2.22;;
19782;SDS011;10051;40.294;-3.754;2023-03-29T10:45:49;12.15;;;2.65;;
19782;SDS011;10051;40.294;-3.754;2023-03-29T10:48:16;7.07;;;2.10;;
19782;SDS011;10051;40.294;-3.754;2023-03-29T10:50:42;12.43;;;2.10;;
19782;SDS011;10051;40.294;-3.754;2023-03-29T11:01:29;6.88;;;1.85;;
19782;SDS011;10051;40.294;-3.754;2023-03-29T11:10:03;9.85;;;1.95;;
19782;SDS011;10051;40.294;-3.754;2023-03-29T11:12:49;12.80;;;2.03;;
19782;SDS011;10051;40.294;-3.754;2023-03-29T11:26:45;12.43;;;2.22;;
19782;SDS011;10051;40.294;-3.754;2023-03-29T11:29:26;7.93;;;1.92;;
19782;SDS011;10051;40.294;-3.754;2023-03-29T11:32:02;8.75;;;2.05;;
19782;SDS011;10051;40.294;-3.754;2023-03-29T11:34:45;13.13;;;2.03;;
19782;SDS011;10051;40.294;-3.754;2023-03-29T11:37:33;10.10;;;2.33;;
19782;SDS011;10051;40.294;-3.754;2023-03-29T11:42:56;10.07;;;1.98;;
19782;SDS011;10051;40.294;-3.754;2023-03-29T11:45:28;10.05;;;2.03;;
19782;SDS011;10051;40.294;-3.754;2023-03-29T11:48:01;7.28;;;1.83;;
19782;SDS011;10051;40.294;-3.754;2023-03-29T11:50:35;8.93;;;1.90;;
19782;SDS011;10051;40.294;-3.754;2023-03-29T11:53:28;9.52;;;1.80;;
19782;SDS011;10051;40.294;-3.754;2023-03-29T11:56:11;13.70;;;1.92;;
19782;SDS011;10051;40.294;-3.754;2023-03-29T11:58:41;6.93;;;1.70;;
19782;SDS011;10051;40.294;-3.754;2023-03-29T12:01:26;18.20;;;2.05;;
19782;SDS011;10051;40.294;-3.754;2023-03-29T12:03:58;11.70;;;2.20;;
19782;SDS011;10051;40.294;-3.754;2023-03-29T12:06:34;7.50;;;1.90;;
19782;SDS011;10051;40.294;-3.754;2023-03-29T12:09:50;9.40;;;1.70;;
19782;SDS011;10051;40.294;-3.754;2023-03-29T12:12:06;6.97;;;1.67;;
19782;SDS011;10051;40.294;-3.754;2023-03-29T12:15:23;9.15;;;1.58;;
19782;SDS011;10051;40.294;-3.754;2023-03-29T12:17:36;7.18;;;1.58;;
19782;SDS011;10051;40.294;-3.754;2023-03-29T12:20:09;7.15;;;1.75;;
19782;SDS011;10051;40.294;-3.754;2023-03-29T12:22:48;9.55;;;1.77;;
19782;SDS011;10051;40.294;-3.754;2023-03-29T12:25:15;5.05;;;1.58;;
19782;SDS011;10051;40.294;-3.754;2023-03-29T12:36:39;3.97;;;1.48;;
19782;SDS011;10051;40.294;-3.754;2023-03-29T12:39:20;6.60;;;1.92;;
19782;SDS011;10051;40.294;-3.754;2023-03-29T12:41:49;8.38;;;1.73;;
19782;SDS011;10051;40.294;-3.754;2023-03-29T12:44:19;7.20;;;1.60;;
19782;SDS011;10051;40.294;-3.754;2023-03-29T12:46:49;9.32;;;1.50;;
19782;SDS011;10051;40.294;-3.754;2023-03-29T12:49:38;6.72;;;1.63;;
19782;SDS011;10051;40.294;-3.754;2023-03-29T12:55:00;7.65;;;1.30;;
19782;SDS011;10051;40.294;-3.754;2023-03-29T12:57:39;5.97;;;1.85;;
19782;SDS011;10051;40.294;-3.754;2023-03-29T13:03:02;4.88;;;1.55;;
19782;SDS011;10051;40.294;-3.754;2023-03-29T13:05:32;9.93;;;1.55;;
19782;SDS011;10051;40.294;-3.754;2023-03-29T13:08:09;8.98;;;1.63;;
19782;SDS011;10051;40.294;-3.754;2023-03-29T13:11:01;8.85;;;1.60;;
19782;SDS011;10051;40.294;-3.754;2023-03-29T13:13:29;6.32;;;1.75;;
19782;SDS011;10051;40.294;-3.754;2023-03-29T13:16:14;6.32;;;1.85;;
19782;SDS011;10051;40.294;-3.754;2023-03-29T13:18:46;5.60;;;1.50;;
19782;SDS011;10051;40.294;-3.754;2023-03-29T13:23:55;3.90;;;1.00;;
19782;SDS011;10051;40.294;-3.754;2023-03-29T13:30:13;6.80;;;1.20;;
19782;SDS011;10051;40.294;-3.754;2023-03-29T13:37:56;4.57;;;1.17;;
19782;SDS011;10051;40.294;-3.754;2023-03-29T13:45:26;6.10;;;1.30;;
19782;SDS011;10051;40.294;-3.754;2023-03-29T13:48:02;5.60;;;1.38;;
19782;SDS011;10051;40.294;-3.754;2023-03-29T13:51:02;7.03;;;1.40;;
19782;SDS011;10051;40.294;-3.754;2023-03-29T13:53:57;13.55;;;1.73;;
19782;SDS011;10051;40.294;-3.754;2023-03-29T13:57:17;5.90;;;1.50;;
19782;SDS011;10051;40.294;-3.754;2023-03-29T13:59:45;6.38;;;1.35;;
19782;SDS011;10051;40.294;-3.754;2023-03-29T14:02:39;4.32;;;1.33;;
19782;SDS011;10051;40.294;-3.754;2023-03-29T14:05:08;3.80;;;1.35;;
19782;SDS011;10051;40.294;-3.754;2023-03-29T14:07:38;5.18;;;1.20;;
19782;SDS011;10051;40.294;-3.754;2023-03-29T14:10:15;5.75;;;1.30;;
19782;SDS011;10051;40.294;-3.754;2023-03-29T14:12:45;6.22;;;1.40;;
19782;SDS011;10051;40.294;-3.754;2023-03-29T14:15:22;2.75;;;1.20;;
19782;SDS011;10051;40.294;-3.754;2023-03-29T14:17:54;7.28;;;1.20;;
19782;SDS011;10051;40.294;-3.754;2023-03-29T14:20:21;3.38;;;1.30;;
19782;SDS011;10051;40.294;-3.754;2023-03-29T14:22:47;3.35;;;1.20;;
19782;SDS011;10051;40.294;-3.754;2023-03-29T14:25:14;6.88;;;1.33;;
19782;SDS011;10051;40.294;-3.754;2023-03-29T14:27:41;6.75;;;1.40;;
19782;SDS011;10051;40.294;-3.754;2023-03-29T14:30:21;5.68;;;1.25;;
19782;SDS011;10051;40.294;-3.754;2023-03-29T14:32:52;7.85;;;1.67;;
19782;SDS011;10051;40.294;-3.754;2023-03-29T14:35:18;4.20;;;1.33;;
19782;SDS011;10051;40.294;-3.754;2023-03-29T14:37:47;6.55;;;1.33;;
19782;SDS011;10051;40.294;-3.754;2023-03-29T14:40:19;6.80;;;1.60;;
19782;SDS011;10051;40.294;-3.754;2023-03-29T14:42:46;6.43;;;1.75;;
19782;SDS011;10051;40.294;-3.754;2023-03-29T14:45:13;7.72;;;1.30;;
19782;SDS011;10051;40.294;-3.754;2023-03-29T14:47:41;8.57;;;1.40;;
19782;SDS011;10051;40.294;-3.754;2023-03-29T14:50:16;6.03;;;1.23;;
19782;SDS011;10051;40.294;-3.754;2023-03-29T14:52:43;8.32;;;1.50;;
19782;SDS011;10051;40.294;-3.754;2023-03-29T14:55:10;5.93;;;1.30;;
19782;SDS011;10051;40.294;-3.754;2023-03-29T14:57:36;4.93;;;1.30;;
19782;SDS011;10051;40.294;-3.754;2023-03-29T15:02:59;7.43;;;1.40;;
19782;SDS011;10051;40.294;-3.754;2023-03-29T15:05:30;3.75;;;1.40;;
19782;SDS011;10051;40.294;-3.754;2023-03-29T15:08:02;9.23;;;1.50;;
19782;SDS011;10051;40.294;-3.754;2023-03-29T15:10:32;7.50;;;1.45;;
19782;SDS011;10051;40.294;-3.754;2023-03-29T15:13:00;4.22;;;1.40;;
19782;SDS011;10051;40.294;-3.754;2023-03-29T15:15:27;6.72;;;1.80;;
19782;SDS011;10051;40.294;-3.754;2023-03-29T15:17:55;4.22;;;1.40;;
19782;SDS011;10051;40.294;-3.754;2023-03-29T15:20:27;4.85;;;1.50;;
19782;SDS011;10051;40.294;-3.754;2023-03-29T15:22:57;4.07;;;1.30;;
19782;SDS011;10051;40.294;-3.754;2023-03-29T15:25:26;3.83;;;1.27;;
19782;SDS011;10051;40.294;-3.754;2023-03-29T15:27:58;5.82;;;1.30;;
19782;SDS011;10051;40.294;-3.754;2023-03-29T15:30:31;6.03;;;1.52;;
19782;SDS011;10051;40.294;-3.754;2023-03-29T15:33:31;6.00;;;1.50;;
19782;SDS011;10051;40.294;-3.754;2023-03-29T15:35:59;8.13;;;1.63;;
19782;SDS011;10051;40.294;-3.754;2023-03-29T15:38:26;4.90;;;1.52;;
19782;SDS011;10051;40.294;-3.754;2023-03-29T15:40:54;4.85;;;1.38;;
19782;SDS011;10051;40.294;-3.754;2023-03-29T15:43:20;3.95;;;1.45;;
19782;SDS011;10051;40.294;-3.754;2023-03-29T15:45:48;4.65;;;1.40;;
19782;SDS011;10051;40.294;-3.754;2023-03-29T15:48:25;3.42;;;1.27;;
19782;SDS011;10051;40.294;-3.754;2023-03-29T15:50:52;4.75;;;1.42;;
19782;SDS011;10051;40.294;-3.754;2023-03-29T15:53:20;5.95;;;1.52;;
19782;SDS011;10051;40.294;-3.754;2023-03-29T15:55:50;5.85;;;1.60;;
19782;SDS011;10051;40.294;-3.754;2023-03-29T15:58:19;4.57;;;1.40;;
19782;SDS011;10051;40.294;-3.754;2023-03-29T16:00:50;5.50;;;1.50;;
19782;SDS011;10051;40.294;-3.754;2023-03-29T16:03:23;3.80;;;1.30;;
19782;SDS011;10051;40.294;-3.754;2023-03-29T16:05:51;3.05;;;1.60;;
19782;SDS011;10051;40.294;-3.754;2023-03-29T16:08:21;6.53;;;1.48;;
19782;SDS011;10051;40.294;-3.754;2023-03-29T16:10:48;5.18;;;1.58;;
19782;SDS011;10051;40.294;-3.754;2023-03-29T16:13:14;6.43;;;1.60;;
19782;SDS011;10051;40.294;-3.754;2023-03-29T16:15:41;3.83;;;1.50;;
19782;SDS011;10051;40.294;-3.754;2023-03-29T16:18:07;6.70;;;1.63;;
19782;SDS011;10051;40.294;-3.754;2023-03-29T16:20:33;5.03;;;1.50;;
19782;SDS011;10051;40.294;-3.754;2023-03-29T16:22:59;3.50;;;1.40;;
19782;SDS011;10051;40.294;-3.754;2023-03-29T16:25:26;8.20;;;1.48;;
19782;SDS011;10051;40.294;-3.754;2023-03-29T16:27:52;3.35;;;1.25;;
19782;SDS011;10051;40.294;-3.754;2023-03-29T16:30:18;2.95;;;1.15;;
19782;SDS011;10051;40.294;-3.754;2023-03-29T16:32:44;6.38;;;1.60;;